createdAt,value
2018-05-12T00:00:04.056Z,0
2018-05-12T00:01:12.090Z,0
2018-05-12T00:02:20.180Z,0
2018-05-12T00:03:28.233Z,0
2018-05-12T00:04:36.298Z,0
2018-05-12T00:05:44.447Z,0
2018-05-12T00:06:52.409Z,0
2018-05-12T00:08:00.500Z,0
2018-05-12T00:09:08.565Z,0
2018-05-12T00:10:16.617Z,0
2018-05-12T00:11:24.655Z,0
2018-05-12T00:12:32.718Z,0
2018-05-12T00:13:40.787Z,0
2018-05-12T00:14:48.844Z,0
2018-05-12T00:15:56.905Z,0
2018-05-12T00:17:04.969Z,0
2018-05-12T00:18:13.036Z,0
2018-05-12T00:19:21.103Z,0
2018-05-12T00:20:29.229Z,0
2018-05-12T00:21:37.221Z,0
2018-05-12T00:22:45.278Z,0
2018-05-12T00:23:53.346Z,0
2018-05-12T00:25:01.389Z,0
2018-05-12T00:26:09.459Z,0
2018-05-12T00:27:17.524Z,0
2018-05-12T00:28:25.581Z,0
2018-05-12T00:29:33.646Z,0
2018-05-12T00:30:41.681Z,0
2018-05-12T00:31:49.780Z,0
2018-05-12T00:32:57.826Z,0
2018-05-12T00:34:05.893Z,0
2018-05-12T00:35:13.953Z,0
2018-05-12T00:36:22.002Z,0
2018-05-12T00:37:30.074Z,0
2018-05-12T00:38:38.135Z,0
2018-05-12T00:39:46.200Z,0
2018-05-12T00:40:54.269Z,0
2018-05-12T00:42:02.309Z,0
2018-05-12T00:43:10.388Z,0
2018-05-12T00:44:18.442Z,0
2018-05-12T00:45:26.502Z,0
2018-05-12T00:46:34.565Z,0
2018-05-12T00:47:42.624Z,0
2018-05-12T00:48:50.685Z,0
2018-05-12T00:49:58.749Z,0
2018-05-12T00:51:06.817Z,0
2018-05-12T00:52:14.896Z,0
2018-05-12T00:53:22.933Z,0
2018-05-12T00:54:30.996Z,0
2018-05-12T00:55:39.061Z,0
2018-05-12T00:56:47.111Z,0
2018-05-12T00:57:55.181Z,0
2018-05-12T00:59:03.233Z,0
2018-05-12T01:00:11.294Z,0
2018-05-12T01:01:19.392Z,0
2018-05-12T01:02:27.428Z,0
2018-05-12T01:03:35.491Z,0
2018-05-12T01:04:43.562Z,0
2018-05-12T01:05:51.599Z,0
2018-05-12T01:06:59.650Z,0
2018-05-12T01:08:07.735Z,0
2018-05-12T01:09:15.784Z,0
2018-05-12T01:10:23.855Z,0
2018-05-12T01:11:31.891Z,0
2018-05-12T01:12:39.970Z,0
2018-05-12T01:13:48.023Z,0
2018-05-12T01:14:56.089Z,0
2018-05-12T01:16:04.159Z,0
2018-05-12T01:17:12.195Z,0
2018-05-12T01:18:20.278Z,0
2018-05-12T01:19:28.338Z,0
2018-05-12T01:20:36.398Z,0
2018-05-12T01:21:44.462Z,0
2018-05-12T01:22:52.517Z,0
2018-05-12T01:24:00.575Z,0
2018-05-12T01:25:08.651Z,0
2018-05-12T01:26:16.716Z,0
2018-05-12T01:27:24.758Z,0
2018-05-12T01:28:32.833Z,0
2018-05-12T01:29:40.895Z,0
2018-05-12T01:30:48.943Z,0
2018-05-12T01:31:57.008Z,0
2018-05-12T01:33:05.077Z,0
2018-05-12T01:34:13.118Z,0
2018-05-12T01:35:21.188Z,0
2018-05-12T01:36:29.257Z,0
2018-05-12T01:37:37.334Z,0
2018-05-12T01:38:45.410Z,0
2018-05-12T01:39:53.435Z,0
2018-05-12T01:41:01.469Z,0
2018-05-12T01:42:09.562Z,0
2018-05-12T01:43:17.611Z,0
2018-05-12T01:44:25.678Z,0
2018-05-12T01:45:33.745Z,0
2018-05-12T01:46:41.784Z,0
2018-05-12T01:47:49.881Z,0
2018-05-12T01:48:57.921Z,0
2018-05-12T01:50:05.987Z,0
2018-05-12T01:51:14.043Z,0
2018-05-12T01:52:22.071Z,0
2018-05-12T01:53:30.164Z,0
2018-05-12T01:54:38.229Z,0
2018-05-12T01:55:46.320Z,0
2018-05-12T01:56:54.351Z,0
2018-05-12T01:58:02.402Z,0
2018-05-12T01:59:10.476Z,0
2018-05-12T02:00:18.536Z,0
2018-05-12T02:01:26.594Z,0
2018-05-12T02:02:34.644Z,0
2018-05-12T02:03:42.732Z,0
2018-05-12T02:04:50.784Z,0
2018-05-12T02:05:58.847Z,0
2018-05-12T02:07:06.892Z,0
2018-05-12T02:08:14.954Z,0
2018-05-12T02:09:23.037Z,0
2018-05-12T02:10:31.081Z,0
2018-05-12T02:11:39.139Z,0
2018-05-12T02:12:47.204Z,0
2018-05-12T02:13:55.275Z,0
2018-05-12T02:15:03.323Z,0
2018-05-12T02:16:11.364Z,0
2018-05-12T02:17:19.448Z,0
2018-05-12T02:18:27.524Z,0
2018-05-12T02:19:35.564Z,0
2018-05-12T02:20:43.625Z,0
2018-05-12T02:21:51.657Z,0
2018-05-12T02:22:59.745Z,0
2018-05-12T02:24:07.812Z,0
2018-05-12T02:25:15.871Z,0
2018-05-12T02:26:23.944Z,0
2018-05-12T02:27:31.973Z,0
2018-05-12T02:28:40.061Z,0
2018-05-12T02:29:48.120Z,0
2018-05-12T02:30:56.173Z,0
2018-05-12T02:32:04.246Z,0
2018-05-12T02:33:12.289Z,0
2018-05-12T02:34:20.357Z,0
2018-05-12T02:35:28.415Z,0
2018-05-12T02:36:36.483Z,0
2018-05-12T02:37:44.533Z,0
2018-05-12T02:38:52.597Z,0
2018-05-12T02:40:00.673Z,0
2018-05-12T02:41:08.720Z,0
2018-05-12T02:42:16.794Z,0
2018-05-12T02:43:24.847Z,0
2018-05-12T02:44:32.894Z,0
2018-05-12T02:45:40.959Z,0
2018-05-12T02:46:49.019Z,0
2018-05-12T02:47:57.094Z,0
2018-05-12T02:49:05.157Z,0
2018-05-12T02:50:13.213Z,0
2018-05-12T02:51:21.259Z,0
2018-05-12T02:52:29.319Z,0
2018-05-12T02:53:37.387Z,0
2018-05-12T02:54:45.489Z,0
2018-05-12T02:55:53.511Z,0
2018-05-12T02:57:01.546Z,0
2018-05-12T02:58:09.629Z,0
2018-05-12T02:59:17.694Z,0
2018-05-12T03:00:25.753Z,0
2018-05-12T03:01:33.812Z,0
2018-05-12T03:02:41.842Z,0
2018-05-12T03:03:49.928Z,0
2018-05-12T03:04:58.002Z,0
2018-05-12T03:06:06.045Z,0
2018-05-12T03:07:14.114Z,0
2018-05-12T03:08:22.149Z,0
2018-05-12T03:09:30.225Z,0
2018-05-12T03:10:38.294Z,0
2018-05-12T03:11:46.364Z,0
2018-05-12T03:12:54.414Z,0
2018-05-12T03:14:02.464Z,0
2018-05-12T03:15:10.821Z,4
2018-05-12T03:16:18.597Z,0
2018-05-12T03:17:26.651Z,0
2018-05-12T03:18:34.734Z,4
2018-05-12T03:19:42.769Z,4
2018-05-12T03:20:50.830Z,4
2018-05-12T03:21:58.901Z,4
2018-05-12T03:23:06.956Z,4
2018-05-12T03:24:15.021Z,8
2018-05-12T03:25:23.071Z,8
2018-05-12T03:26:31.144Z,12
2018-05-12T03:27:39.204Z,12
2018-05-12T03:28:47.258Z,16
2018-05-12T03:29:55.318Z,20
2018-05-12T03:31:03.377Z,20
2018-05-12T03:32:11.429Z,28
2018-05-12T03:33:19.495Z,32
2018-05-12T03:34:27.559Z,40
2018-05-12T03:35:35.644Z,44
2018-05-12T03:36:43.761Z,52
2018-05-12T03:37:51.719Z,56
2018-05-12T03:38:59.790Z,64
2018-05-12T03:40:07.853Z,76
2018-05-12T03:41:15.913Z,88
2018-05-12T03:42:23.971Z,100
2018-05-12T03:43:32.024Z,112
2018-05-12T03:44:40.382Z,128
2018-05-12T03:45:48.169Z,144
2018-05-12T03:46:56.219Z,164
2018-05-12T03:48:04.273Z,180
2018-05-12T03:49:12.341Z,200
2018-05-12T03:50:20.426Z,224
2018-05-12T03:51:28.454Z,252
2018-05-12T03:52:36.522Z,284
2018-05-12T03:53:44.571Z,320
2018-05-12T03:54:53.160Z,356
2018-05-12T03:56:00.697Z,388
2018-05-12T03:57:08.767Z,424
2018-05-12T03:58:16.818Z,452
2018-05-12T03:59:24.877Z,480
2018-05-12T04:00:32.943Z,504
2018-05-12T04:01:41.010Z,536
2018-05-12T04:02:49.060Z,568
2018-05-12T04:03:57.135Z,612
2018-05-12T04:05:05.180Z,660
2018-05-12T04:06:13.353Z,712
2018-05-12T04:07:21.828Z,760
2018-05-12T04:08:29.951Z,812
2018-05-12T04:09:38.093Z,868
2018-05-12T04:11:53.548Z,988
2018-05-12T04:13:01.588Z,1068
2018-05-12T04:14:09.674Z,1156
2018-05-12T04:15:17.736Z,1224
2018-05-12T04:16:26.363Z,1284
2018-05-12T04:17:36.692Z,1344
2018-05-12T04:18:41.888Z,1408
2018-05-12T04:19:50.637Z,1504
2018-05-12T04:20:58.397Z,1592
2018-05-12T04:22:06.078Z,1708
2018-05-12T04:23:14.162Z,1812
2018-05-12T04:24:22.195Z,1872
2018-05-12T04:25:30.269Z,1944
2018-05-12T04:26:38.333Z,2020
2018-05-12T04:27:46.405Z,2092
2018-05-12T04:28:54.463Z,2180
2018-05-12T04:30:02.526Z,2276
2018-05-12T04:31:10.574Z,2372
2018-05-12T04:32:18.646Z,2464
2018-05-12T04:33:26.687Z,2544
2018-05-12T04:34:34.760Z,2612
2018-05-12T04:35:43.071Z,2712
2018-05-12T04:36:52.731Z,2836
2018-05-12T04:37:58.954Z,2984
2018-05-12T04:39:07.006Z,3076
2018-05-12T04:40:15.061Z,3148
2018-05-12T04:41:23.126Z,3200
2018-05-12T04:42:31.201Z,3204
2018-05-12T04:43:39.299Z,3128
2018-05-12T04:44:47.304Z,3076
2018-05-12T04:45:55.571Z,3068
2018-05-12T04:47:03.443Z,3024
2018-05-12T04:48:11.471Z,3000
2018-05-12T04:49:19.563Z,2960
2018-05-12T04:50:27.629Z,2940
2018-05-12T04:51:35.686Z,2940
2018-05-12T04:52:43.745Z,2952
2018-05-12T04:53:51.776Z,2956
2018-05-12T04:54:59.864Z,2992
2018-05-12T04:56:07.923Z,3132
2018-05-12T04:57:16.000Z,3336
2018-05-12T04:58:24.059Z,3460
2018-05-12T04:59:32.089Z,3576
2018-05-12T05:00:40.179Z,3744
2018-05-12T05:01:48.234Z,4028
2018-05-12T05:02:56.313Z,4292
2018-05-12T05:04:04.360Z,4384
2018-05-12T05:05:12.426Z,4400
2018-05-12T05:06:20.486Z,4260
2018-05-12T05:07:28.559Z,4036
2018-05-12T05:08:36.635Z,3824
2018-05-12T05:09:44.689Z,3608
2018-05-12T05:10:52.740Z,3460
2018-05-12T05:12:00.803Z,3380
2018-05-12T05:13:08.943Z,3332
2018-05-12T05:14:16.930Z,3284
2018-05-12T05:15:24.986Z,3288
2018-05-12T05:16:33.061Z,3336
2018-05-12T05:17:41.407Z,3440
2018-05-12T05:18:49.456Z,3708
2018-05-12T05:19:57.239Z,4196
2018-05-12T05:21:05.377Z,4284
2018-05-12T05:22:13.370Z,4348
2018-05-12T05:23:21.407Z,4504
2018-05-12T05:24:29.483Z,4820
2018-05-12T05:25:37.545Z,4444
2018-05-12T05:26:45.610Z,4444
2018-05-12T05:27:53.671Z,4460
2018-05-12T05:29:01.715Z,4492
2018-05-12T05:30:09.801Z,4500
2018-05-12T05:31:17.866Z,4524
2018-05-12T05:32:25.924Z,4532
2018-05-12T05:33:33.979Z,4592
2018-05-12T05:34:42.021Z,4436
2018-05-12T05:35:50.111Z,3896
2018-05-12T05:36:58.168Z,4036
2018-05-12T05:38:06.240Z,4324
2018-05-12T05:39:14.302Z,4468
2018-05-12T05:40:22.348Z,4796
2018-05-12T05:41:30.430Z,5108
2018-05-12T05:42:38.490Z,5068
2018-05-12T05:43:46.557Z,5124
2018-05-12T05:44:54.614Z,5172
2018-05-12T05:46:03.369Z,5220
2018-05-12T05:47:10.738Z,5272
2018-05-12T05:48:18.807Z,5328
2018-05-12T05:49:26.872Z,5388
2018-05-12T05:50:34.925Z,5420
2018-05-12T05:51:42.994Z,5480
2018-05-12T05:52:51.043Z,5512
2018-05-12T05:53:59.119Z,5524
2018-05-12T05:55:07.183Z,5556
2018-05-12T05:56:15.243Z,5592
2018-05-12T05:57:23.315Z,5624
2018-05-12T05:58:31.432Z,5668
2018-05-12T05:59:39.430Z,5724
2018-05-12T06:00:47.485Z,5796
2018-05-12T06:01:55.558Z,5860
2018-05-12T06:03:03.639Z,5940
2018-05-12T06:04:11.652Z,6000
2018-05-12T06:05:19.750Z,6072
2018-05-12T06:06:27.809Z,6108
2018-05-12T06:07:35.870Z,6144
2018-05-12T06:08:43.938Z,6164
2018-05-12T06:09:51.973Z,6188
2018-05-12T06:11:00.065Z,6224
2018-05-12T06:12:08.135Z,6260
2018-05-12T06:13:16.196Z,6324
2018-05-12T06:14:24.252Z,6396
2018-05-12T06:15:32.313Z,6456
2018-05-12T06:16:40.367Z,6500
2018-05-12T06:17:48.450Z,6540
2018-05-12T06:18:56.504Z,6596
2018-05-12T06:20:04.564Z,6640
2018-05-12T06:21:12.913Z,6716
2018-05-12T06:22:20.787Z,6796
2018-05-12T06:23:28.764Z,6900
2018-05-12T06:24:36.829Z,7032
2018-05-12T06:25:44.923Z,7080
2018-05-12T06:26:53.558Z,7216
2018-05-12T06:28:01.676Z,7296
2018-05-12T06:29:09.420Z,7416
2018-05-12T06:30:17.152Z,7452
2018-05-12T06:31:25.198Z,7524
2018-05-12T06:32:33.279Z,7728
2018-05-12T06:33:41.319Z,8076
2018-05-12T06:34:49.409Z,7784
2018-05-12T06:35:57.848Z,7884
2018-05-12T06:37:05.550Z,7952
2018-05-12T06:38:13.593Z,8036
2018-05-12T06:39:21.636Z,8228
2018-05-12T06:40:29.721Z,8400
2018-05-12T06:41:38.491Z,8576
2018-05-12T06:42:46.396Z,8772
2018-05-12T06:43:53.913Z,9008
2018-05-12T06:45:01.961Z,9372
2018-05-12T06:46:10.048Z,9832
2018-05-12T06:47:18.104Z,10464
2018-05-12T06:48:26.266Z,11096
2018-05-12T06:49:34.231Z,11576
2018-05-12T06:50:42.293Z,11616
2018-05-12T06:51:50.362Z,11376
2018-05-12T06:52:58.434Z,11052
2018-05-12T06:54:06.496Z,10932
2018-05-12T06:55:14.576Z,10648
2018-05-12T06:56:22.662Z,10392
2018-05-12T06:57:30.707Z,10292
2018-05-12T06:58:39.210Z,10296
2018-05-12T06:59:47.235Z,10272
2018-05-12T07:00:54.881Z,9988
2018-05-12T07:02:02.957Z,9760
2018-05-12T07:03:11.034Z,9560
2018-05-12T07:04:19.075Z,9568
2018-05-12T07:05:27.153Z,9464
2018-05-12T07:06:35.222Z,9644
2018-05-12T07:07:43.282Z,9448
2018-05-12T07:08:51.326Z,9524
2018-05-12T07:09:59.418Z,9480
2018-05-12T07:11:09.109Z,11356
2018-05-12T07:12:15.566Z,11976
2018-05-12T07:13:23.614Z,11196
2018-05-12T07:14:31.705Z,11324
2018-05-12T07:15:39.947Z,10812
2018-05-12T07:16:47.823Z,11580
2018-05-12T07:17:56.501Z,15980
2018-05-12T07:19:03.957Z,22240
2018-05-12T07:20:11.991Z,38112
2018-05-12T07:21:20.078Z,37632
2018-05-12T07:22:28.143Z,38400
2018-05-12T07:23:36.236Z,47936
2018-05-12T07:24:44.290Z,43200
2018-05-12T07:25:52.346Z,41696
2018-05-12T07:27:00.449Z,39360
2018-05-12T07:28:08.495Z,29120
2018-05-12T07:29:16.561Z,38656
2018-05-12T07:30:24.625Z,46912
2018-05-12T07:31:32.699Z,45312
2018-05-12T07:32:40.777Z,47648
2018-05-12T07:33:48.847Z,54720
2018-05-12T07:34:56.906Z,55712
2018-05-12T07:36:04.977Z,55616
2018-05-12T07:37:13.056Z,51840
2018-05-12T07:38:21.142Z,50336
2018-05-12T07:39:29.190Z,41856
2018-05-12T07:40:37.263Z,33152
2018-05-12T07:41:45.332Z,28864
2018-05-12T07:42:53.419Z,26688
2018-05-12T07:44:01.475Z,30432
2018-05-12T07:45:09.563Z,34144
2018-05-12T07:46:17.635Z,29952
2018-05-12T07:47:25.703Z,23040
2018-05-12T07:48:33.765Z,14052
2018-05-12T07:49:41.828Z,15820
2018-05-12T07:50:49.933Z,11168
2018-05-12T07:51:58.002Z,13592
2018-05-12T07:53:06.067Z,29184
2018-05-12T07:54:14.166Z,33568
2018-05-12T07:55:22.202Z,32768
2018-05-12T07:56:30.290Z,33280
2018-05-12T07:57:38.375Z,50688
2018-05-12T07:58:46.446Z,60128
2018-05-12T07:59:54.515Z,53856
2018-05-12T08:01:02.592Z,53216
2018-05-12T08:02:10.663Z,52864
2018-05-12T08:03:18.732Z,55360
2018-05-12T08:04:26.807Z,60960
2018-05-12T08:05:34.899Z,60192
2018-05-12T08:06:42.965Z,58656
2018-05-12T08:07:51.064Z,54176
2018-05-12T08:08:59.116Z,53760
2018-05-12T08:10:07.204Z,54176
2018-05-12T08:11:15.284Z,57664
2018-05-12T08:12:23.349Z,57024
2018-05-12T08:13:31.418Z,53920
2018-05-12T08:14:39.506Z,52128
2018-05-12T08:15:47.590Z,46144
2018-05-12T08:16:55.675Z,48768
2018-05-12T08:18:03.821Z,56864
2018-05-12T08:19:11.801Z,65120
2018-05-12T08:20:19.898Z,62624
2018-05-12T08:21:27.981Z,61344
2018-05-12T08:22:36.052Z,62112
2018-05-12T08:23:44.154Z,62720
2018-05-12T08:24:52.207Z,60992
2018-05-12T08:26:00.372Z,70176
2018-05-12T08:27:08.397Z,70976
2018-05-12T08:28:16.468Z,75200
2018-05-12T08:29:24.554Z,77856
2018-05-12T08:30:32.648Z,71744
2018-05-12T08:31:40.716Z,74464
2018-05-12T08:32:48.805Z,73760
2018-05-12T08:33:56.872Z,74112
2018-05-12T08:35:04.963Z,74560
2018-05-12T08:36:13.036Z,71136
2018-05-12T08:37:21.172Z,74432
2018-05-12T08:38:29.209Z,80544
2018-05-12T08:39:37.286Z,79968
2018-05-12T08:40:45.403Z,74400
2018-05-12T08:41:53.439Z,71968
2018-05-12T08:43:01.504Z,70208
2018-05-12T08:44:09.624Z,71648
2018-05-12T08:45:17.688Z,66368
2018-05-12T08:46:25.781Z,72640
2018-05-12T08:47:33.850Z,77536
2018-05-12T08:48:41.914Z,81888
2018-05-12T08:49:50.019Z,75008
2018-05-12T08:50:58.093Z,77216
2018-05-12T08:52:06.179Z,90816
2018-05-12T08:53:14.257Z,90144
2018-05-12T08:54:22.348Z,84832
2018-05-12T08:55:30.425Z,86304
2018-05-12T08:56:38.508Z,75136
2018-05-12T08:57:46.592Z,79712
2018-05-12T08:58:54.686Z,76192
2018-05-12T09:00:02.761Z,81824
2018-05-12T09:01:10.841Z,85760
2018-05-12T09:02:18.920Z,79424
2018-05-12T09:03:27.003Z,73504
2018-05-12T09:04:35.084Z,77856
2018-05-12T09:05:43.159Z,89728
2018-05-12T09:06:51.242Z,73568
2018-05-12T09:07:59.334Z,37344
2018-05-12T09:09:07.407Z,8296
2018-05-12T09:10:15.496Z,7728
2018-05-12T09:11:23.578Z,7848
2018-05-12T09:12:31.624Z,7848
2018-05-12T09:13:39.725Z,7632
2018-05-12T09:14:47.809Z,7420
2018-05-12T09:15:55.890Z,7344
2018-05-12T09:17:03.973Z,7440
2018-05-12T09:18:12.014Z,7456
2018-05-12T09:19:20.209Z,7272
2018-05-12T09:20:28.200Z,7252
2018-05-12T09:21:36.264Z,7292
2018-05-12T09:22:44.353Z,7344
2018-05-12T09:23:52.414Z,7240
2018-05-12T09:25:00.500Z,7248
2018-05-12T09:26:08.570Z,7332
2018-05-12T09:27:16.650Z,7424
2018-05-12T09:28:24.735Z,7480
2018-05-12T09:29:32.778Z,7544
2018-05-12T09:30:40.876Z,7684
2018-05-12T09:31:48.947Z,7660
2018-05-12T09:32:57.026Z,7572
2018-05-12T09:34:05.110Z,7516
2018-05-12T09:35:13.240Z,7512
2018-05-12T09:36:21.233Z,7368
2018-05-12T09:37:29.310Z,7212
2018-05-12T09:38:37.389Z,7152
2018-05-12T09:39:45.458Z,7332
2018-05-12T09:40:53.538Z,7468
2018-05-12T09:42:01.593Z,7460
2018-05-12T09:43:09.684Z,7252
2018-05-12T09:44:17.749Z,7124
2018-05-12T09:45:25.825Z,7268
2018-05-12T09:46:33.894Z,7500
2018-05-12T09:47:41.945Z,7616
2018-05-12T09:48:50.057Z,7380
2018-05-12T09:49:58.120Z,7108
2018-05-12T09:51:06.174Z,6860
2018-05-12T09:52:14.346Z,6760
2018-05-12T09:53:22.317Z,6728
2018-05-12T09:54:30.401Z,6780
2018-05-12T09:55:38.512Z,7136
2018-05-12T09:56:46.561Z,7716
2018-05-12T09:57:54.619Z,7988
2018-05-12T09:59:02.682Z,8220
2018-05-12T10:00:10.759Z,8432
2018-05-12T10:01:18.823Z,8520
2018-05-12T10:02:26.905Z,8696
2018-05-12T10:03:34.975Z,9032
2018-05-12T10:04:43.039Z,9916
2018-05-12T10:05:51.112Z,10248
2018-05-12T10:06:59.204Z,10668
2018-05-12T10:08:07.255Z,10632
2018-05-12T10:09:15.337Z,10208
2018-05-12T10:10:23.407Z,9668
2018-05-12T10:11:31.463Z,9556
2018-05-12T10:12:39.548Z,9516
2018-05-12T10:13:47.621Z,8768
2018-05-12T10:14:55.700Z,8136
2018-05-12T10:16:03.840Z,7180
2018-05-12T10:17:11.818Z,7408
2018-05-12T10:18:19.913Z,7612
2018-05-12T10:19:28.097Z,6996
2018-05-12T10:20:36.044Z,6684
2018-05-12T10:21:44.109Z,6540
2018-05-12T10:22:52.168Z,6380
2018-05-12T10:24:00.248Z,6252
2018-05-12T10:25:08.323Z,6076
2018-05-12T10:26:16.421Z,5908
2018-05-12T10:27:24.470Z,5848
2018-05-12T10:28:32.550Z,5868
2018-05-12T10:29:40.623Z,5960
2018-05-12T10:30:48.695Z,6160
2018-05-12T10:31:56.768Z,6368
2018-05-12T10:33:04.836Z,6408
2018-05-12T10:34:12.900Z,6196
2018-05-12T10:35:20.978Z,6120
2018-05-12T10:36:29.036Z,6096
2018-05-12T10:37:37.146Z,6040
2018-05-12T10:38:45.184Z,6024
2018-05-12T10:39:53.251Z,6036
2018-05-12T10:41:01.314Z,6056
2018-05-12T10:42:09.417Z,6024
2018-05-12T10:43:17.466Z,6120
2018-05-12T10:44:25.532Z,6396
2018-05-12T10:45:33.604Z,6636
2018-05-12T10:46:41.649Z,6896
2018-05-12T10:47:49.763Z,6672
2018-05-12T10:48:57.827Z,6332
2018-05-12T10:50:05.902Z,6292
2018-05-12T10:51:13.966Z,6420
2018-05-12T10:52:22.015Z,6448
2018-05-12T10:53:30.102Z,6416
2018-05-12T10:54:38.172Z,6328
2018-05-12T10:55:46.246Z,6484
2018-05-12T10:56:54.410Z,6048
2018-05-12T10:58:02.395Z,7896
2018-05-12T10:59:10.470Z,8896
2018-05-12T11:00:18.548Z,8576
2018-05-12T11:01:26.609Z,7652
2018-05-12T11:02:34.680Z,6416
2018-05-12T11:03:42.748Z,5620
2018-05-12T11:04:50.822Z,6136
2018-05-12T11:05:58.883Z,6220
2018-05-12T11:07:06.969Z,6148
2018-05-12T11:08:15.146Z,6320
2018-05-12T11:09:23.103Z,6480
2018-05-12T11:10:31.166Z,7176
2018-05-12T11:11:39.252Z,7504
2018-05-12T11:12:47.321Z,7268
2018-05-12T11:13:55.395Z,6264
2018-05-12T11:15:03.464Z,6312
2018-05-12T11:16:11.602Z,6212
2018-05-12T11:17:19.598Z,6352
2018-05-12T11:18:27.670Z,6332
2018-05-12T11:19:35.749Z,6820
2018-05-12T11:20:43.814Z,7364
2018-05-12T11:21:51.916Z,8644
2018-05-12T11:22:59.955Z,10776
2018-05-12T11:24:08.031Z,10396
2018-05-12T11:25:16.110Z,10092
2018-05-12T11:26:24.157Z,9180
2018-05-12T11:27:32.218Z,8460
2018-05-12T11:28:40.312Z,7152
2018-05-12T11:29:48.376Z,6236
2018-05-12T11:30:56.454Z,6304
2018-05-12T11:32:04.526Z,6692
2018-05-12T11:33:12.593Z,7124
2018-05-12T11:34:20.662Z,7596
2018-05-12T11:35:28.737Z,7952
2018-05-12T11:36:36.803Z,8852
2018-05-12T11:37:44.882Z,9136
2018-05-12T11:38:53.036Z,9144
2018-05-12T11:40:01.023Z,8240
2018-05-12T11:41:09.102Z,6968
2018-05-12T11:42:17.175Z,6160
2018-05-12T11:43:25.257Z,5920
2018-05-12T11:44:33.456Z,6064
2018-05-12T11:45:41.384Z,6532
2018-05-12T11:46:49.789Z,7068
2018-05-12T11:47:57.520Z,7848
2018-05-12T11:49:05.604Z,7380
2018-05-12T11:50:13.720Z,5976
2018-05-12T11:51:21.806Z,5452
2018-05-12T11:52:29.827Z,5356
2018-05-12T11:53:37.885Z,5252
2018-05-12T11:54:45.964Z,5204
2018-05-12T11:55:54.032Z,5392
2018-05-12T11:57:02.070Z,5904
2018-05-12T11:58:10.166Z,6156
2018-05-12T11:59:18.245Z,6108
2018-05-12T12:00:26.331Z,5640
2018-05-12T12:01:34.400Z,5088
2018-05-12T12:02:42.454Z,4940
2018-05-12T12:03:50.750Z,5232
2018-05-12T12:04:58.598Z,5580
2018-05-12T12:06:06.674Z,5816
2018-05-12T12:07:14.750Z,5092
2018-05-12T12:08:22.823Z,4436
2018-05-12T12:09:30.894Z,3396
2018-05-12T12:10:38.996Z,3272
2018-05-12T12:11:47.041Z,3572
2018-05-12T12:12:55.114Z,5008
2018-05-12T12:14:03.182Z,5632
2018-05-12T12:15:11.253Z,5800
2018-05-12T12:16:19.326Z,5524
2018-05-12T12:17:27.388Z,5396
2018-05-12T12:18:35.473Z,5380
2018-05-12T12:19:43.536Z,5536
2018-05-12T12:20:51.586Z,5712
2018-05-12T12:21:59.679Z,5940
2018-05-12T12:23:07.749Z,6052
2018-05-12T12:24:15.823Z,5184
2018-05-12T12:25:23.892Z,4128
2018-05-12T12:26:31.933Z,3664
2018-05-12T12:27:40.029Z,3672
2018-05-12T12:28:48.094Z,3832
2018-05-12T12:29:56.170Z,3876
2018-05-12T12:31:04.252Z,4496
2018-05-12T12:32:12.310Z,4360
2018-05-12T12:33:20.389Z,4256
2018-05-12T12:34:28.492Z,4152
2018-05-12T12:35:36.527Z,4072
2018-05-12T12:36:44.611Z,4004
2018-05-12T12:37:52.679Z,3308
2018-05-12T12:39:00.733Z,3336
2018-05-12T12:40:08.822Z,4168
2018-05-12T12:41:16.898Z,4508
2018-05-12T12:42:24.957Z,4568
2018-05-12T12:43:33.033Z,4508
2018-05-12T12:44:41.101Z,4364
2018-05-12T12:45:49.170Z,4256
2018-05-12T12:46:57.234Z,4184
2018-05-12T12:48:05.325Z,4212
2018-05-12T12:49:13.388Z,4560
2018-05-12T12:50:21.439Z,4612
2018-05-12T12:51:29.511Z,5380
2018-05-12T12:52:37.609Z,5464
2018-05-12T12:53:45.664Z,5180
2018-05-12T12:54:53.739Z,4856
2018-05-12T12:56:01.786Z,4468
2018-05-12T12:57:09.879Z,3612
2018-05-12T12:58:17.968Z,4172
2018-05-12T12:59:26.018Z,3912
2018-05-12T13:00:34.117Z,4584
2018-05-12T13:01:42.139Z,4672
2018-05-12T13:02:50.246Z,4688
2018-05-12T13:03:58.299Z,4844
2018-05-12T13:05:06.385Z,5004
2018-05-12T13:06:14.469Z,4928
2018-05-12T13:07:22.522Z,4796
2018-05-12T13:08:30.599Z,5288
2018-05-12T13:09:38.648Z,6008
2018-05-12T13:10:46.731Z,5912
2018-05-12T13:11:54.815Z,5772
2018-05-12T13:13:02.881Z,5948
2018-05-12T13:14:10.945Z,6108
2018-05-12T13:15:19.015Z,6424
2018-05-12T13:16:27.089Z,6596
2018-05-12T13:17:35.179Z,7284
2018-05-12T13:18:43.225Z,7944
2018-05-12T13:19:51.296Z,8328
2018-05-12T13:20:59.373Z,9184
2018-05-12T13:22:07.510Z,9776
2018-05-12T13:23:15.519Z,10992
2018-05-12T13:24:23.586Z,11176
2018-05-12T13:25:31.643Z,11016
2018-05-12T13:26:39.740Z,10716
2018-05-12T13:27:47.840Z,10208
2018-05-12T13:28:55.909Z,9676
2018-05-12T13:30:03.946Z,9044
2018-05-12T13:31:11.992Z,8532
2018-05-12T13:32:20.103Z,8788
2018-05-12T13:33:28.173Z,8360
2018-05-12T13:34:36.235Z,8440
2018-05-12T13:35:44.301Z,7808
2018-05-12T13:36:52.376Z,6780
2018-05-12T13:38:00.459Z,5800
2018-05-12T13:39:08.516Z,5560
2018-05-12T13:40:16.601Z,5532
2018-05-12T13:41:24.665Z,5584
2018-05-12T13:42:32.725Z,6008
2018-05-12T13:43:40.841Z,6952
2018-05-12T13:44:48.871Z,7144
2018-05-12T13:45:56.945Z,7176
2018-05-12T13:47:05.028Z,6360
2018-05-12T13:48:13.088Z,5740
2018-05-12T13:49:21.153Z,5052
2018-05-12T13:50:29.240Z,4692
2018-05-12T13:51:37.311Z,4716
2018-05-12T13:52:45.369Z,5124
2018-05-12T13:53:53.452Z,6176
2018-05-12T13:55:01.504Z,7420
2018-05-12T13:56:09.609Z,8420
2018-05-12T13:57:17.671Z,8488
2018-05-12T13:58:25.728Z,8668
2018-05-12T13:59:33.815Z,9168
2018-05-12T14:00:41.854Z,9960
2018-05-12T14:01:49.942Z,10920
2018-05-12T14:02:58.018Z,11592
2018-05-12T14:04:06.084Z,12024
2018-05-12T14:05:14.164Z,11868
2018-05-12T14:06:22.216Z,11148
2018-05-12T14:07:30.304Z,10164
2018-05-12T14:08:38.377Z,8596
2018-05-12T14:09:46.446Z,7520
2018-05-12T14:10:54.529Z,6448
2018-05-12T14:12:02.593Z,6284
2018-05-12T14:13:10.668Z,5776
2018-05-12T14:14:18.734Z,5376
2018-05-12T14:15:26.817Z,5460
2018-05-12T14:16:35.196Z,5688
2018-05-12T14:17:44.545Z,6768
2018-05-12T14:18:51.635Z,7816
2018-05-12T14:19:59.097Z,7448
2018-05-12T14:21:07.439Z,7100
2018-05-12T14:22:15.236Z,7120
2018-05-12T14:23:23.307Z,6616
2018-05-12T14:24:31.648Z,6104
2018-05-12T14:25:39.454Z,5564
2018-05-12T14:26:47.519Z,5432
2018-05-12T14:27:55.604Z,5252
2018-05-12T14:29:03.650Z,5060
2018-05-12T14:30:11.726Z,5124
2018-05-12T14:31:19.807Z,5164
2018-05-12T14:32:27.881Z,5164
2018-05-12T14:33:35.939Z,5196
2018-05-12T14:34:44.015Z,5448
2018-05-12T14:35:52.062Z,5904
2018-05-12T14:37:00.167Z,6584
2018-05-12T14:38:08.235Z,7104
2018-05-12T14:39:16.310Z,7896
2018-05-12T14:40:24.376Z,8768
2018-05-12T14:41:32.441Z,9384
2018-05-12T14:42:40.572Z,10144
2018-05-12T14:43:48.598Z,11280
2018-05-12T14:44:56.659Z,12240
2018-05-12T14:46:04.730Z,12928
2018-05-12T14:47:12.804Z,13020
2018-05-12T14:48:20.882Z,12548
2018-05-12T14:49:28.999Z,11716
2018-05-12T14:50:37.036Z,11600
2018-05-12T14:51:45.098Z,11336
2018-05-12T14:52:53.153Z,11096
2018-05-12T14:54:01.235Z,10516
2018-05-12T14:55:09.301Z,9936
2018-05-12T14:56:17.379Z,9492
2018-05-12T14:57:25.449Z,9208
2018-05-12T14:58:33.516Z,9128
2018-05-12T14:59:41.566Z,9156
2018-05-12T15:00:49.663Z,9092
2018-05-12T15:01:57.739Z,8784
2018-05-12T15:03:05.809Z,8868
2018-05-12T15:04:13.877Z,9020
2018-05-12T15:05:21.933Z,9200
2018-05-12T15:06:30.037Z,9468
2018-05-12T15:07:38.103Z,9492
2018-05-12T15:08:46.163Z,9084
2018-05-12T15:09:54.245Z,8792
2018-05-12T15:11:02.306Z,8748
2018-05-12T15:12:10.395Z,8600
2018-05-12T15:13:18.609Z,8232
2018-05-12T15:14:26.532Z,8368
2018-05-12T15:15:34.604Z,8740
2018-05-12T15:16:42.676Z,9524
2018-05-12T15:17:50.748Z,9260
2018-05-12T15:18:58.829Z,9140
2018-05-12T15:20:06.900Z,9024
2018-05-12T15:21:14.971Z,8372
2018-05-12T15:22:23.040Z,8292
2018-05-12T15:23:31.100Z,7684